Airfield :
LOGIN :

Register | Disclaimer

   EN    FR    IT 

 










Legend :    VFR   Marginal VFR   IFR   Intensive IFR   Very Intensive IFR
Visi :
Ceiling :
>= 8 km
>= 3000ft
5 to 8 km
1000 to 3000 ft
1500m to 5 km
500 to 1000 ft
800 to 1500m
200 to 500 ft
< 800m
< 200 ft
Symbols :   Thunderstorms  Fog  Heavy snow  Heavy precipitations  Wind > 20 kt
SIGMETs :     Misc.  Thunderstorms  Icing  Turbulence  Mountain Waves  Volcanic Ashes







- Airport Elevation : 502 ft
- IATA code : ORK


EICK - Cork

CURRENT METAR :
  • 210900Z 27019KT 9999 FEW018CB SCT022 11/07 Q1009 NOSIG

EXPIRED METARs :
  • 210830Z 26017KT 9999 FEW018CB 11/07 Q1009 NOSIG
  • 210800Z 26016KT 9999 -SHRA FEW018CB 10/07 Q1008 NOSIG
  • 210730Z 25016KT 9999 FEW018CB SCT021 09/06 Q1008 NOSIG
  • 210700Z 24011KT 9999 FEW018CB 08/05 Q1007 NOSIG
  • 210630Z 24009KT 9999 FEW018CB 07/05 Q1007 NOSIG

TAF TAF EICK
Valid from the 21 at 06:00 until the 22 at 06:00 UTC


210500Z 2106/2206 25012KT 9999 FEW040
BECMG 2106/2109 28016G27KT
TEMPO 2106/2120 -SHRA BKN012 FEW018CB
TEMPO 2109/2114 28021G33KT
BECMG 2114/2117 28012KT
BECMG 2119/2122 25008KT
BECMG 2201/2203 VRB03KT
No reported NOTAMs for that airfield.
2 SIGMETs reported for the Shannon FIR (EISN) :
 
Severe turbulence
EISN SIGMET 02 VALID 210900/211200 EINN
EISN SHANNON FIR/UIR SEV TURB FCST WI N5301 W01500 - N5255 W01400 - N5100 W01331 - N5100 W01500 - N5301 W01500 FL200/370 MOV ENE 25KT NC=
Severe turbulence
EISN SIGMET 01 VALID 210806/211206 EINN
EISN SHANNON FIR SEV TURB FCST N OF LINE N5434 W01000 - N5425 W00810 SFC/FL060 MOV SE 30KT NC=



MET'MAP, your aeronautical weather chart ! - Copyright ORBIFLY December 2007 - Disclaimer

ORBIFLY MET'MAP TEAM :

Programming & Development : Alexandra Zaïnal
Concept & Development : Baudouin d'Aumeries
Co-Development & Prog : Marc-Olivier Méhu
Technical & hardware support : Manuel Goepfert

Contact : metmap@orbifly.com




SOURCES & CREDITS :

   NOAA